Time;durP1;ratioP1;P1;durP2;ratioP2;P2;SDS_P1;SDS_P2;PMS_P1;PMS_P2;Temp;Humidity;BMP_temperature;BMP_pressure;BME280_temperature;BME280_humidity;BME280_pressure;Samples;Min_cycle;Max_cycle;Signal;HPM_P1;HPM_P2
2022/05/07 00:00:40;;;;;;;2.53;1.13;;;;;;;;;;5047276;28;20028;-79
2022/05/07 00:03:06;;;;;;;2.30;1.25;;;;;;;;;;5043112;28;20041;-79
2022/05/07 00:05:32;;;;;;;5.95;1.48;;;;;;;;;;5039269;28;20120;-78
2022/05/07 00:07:58;;;;;;;3.75;1.00;;;;;;;;;;5037812;28;20044;-78
2022/05/07 00:10:24;;;;;;;3.80;1.92;;;;;;;;;;5039445;28;20021;-79
2022/05/07 00:12:50;;;;;;;2.13;1.10;;;8.20;99.90;;;;;;5042360;28;20048;-79
2022/05/07 00:15:16;;;;;;;1.80;0.88;;;;;;;;;;5039660;28;20527;-78
2022/05/07 00:18:06;;;;;;;2.13;0.98;;;;;;;;;;5040274;28;20029;-78
2022/05/07 00:20:33;;;;;;;1.98;1.08;;;;;;;;;;5038140;28;20064;-78
2022/05/07 00:22:59;;;;;;;1.92;0.60;;;;;;;;;;5044169;28;20033;-78
2022/05/07 00:25:25;;;;;;;3.90;0.77;;;;;;;;;;5041789;28;20642;-78
2022/05/07 00:27:51;;;;;;;1.42;0.93;;;;;;;;;;5041414;28;20103;-78
2022/05/07 00:30:17;;;;;;;2.35;0.98;;;;;;;;;;5040623;28;20140;-78
2022/05/07 00:32:43;;;;;;;2.40;0.88;;;;;;;;;;5041378;28;20187;-78
2022/05/07 00:35:10;;;;;;;1.80;1.00;;;;;;;;;;5040665;28;20033;-78
2022/05/07 00:37:36;;;;;;;2.50;1.25;;;;;;;;;;5042275;28;20029;-79
2022/05/07 00:40:03;;;;;;;1.38;0.90;;;;;;;;;;5044392;28;20020;-79
2022/05/07 00:42:29;;;;;;;2.78;1.20;;;;;;;;;;5039692;28;20516;-78
2022/05/07 00:44:55;;;;;;;2.72;1.50;;;;;;;;;;5038720;28;20447;-78
2022/05/07 00:47:23;;;;;;;3.38;1.80;;;;;;;;;;5041503;28;20040;-79
2022/05/07 00:49:50;;;;;;;4.45;2.05;;;;;;;;;;5037731;28;20059;-78
2022/05/07 00:52:18;;;;;;;3.33;1.27;;;;;;;;;;5049818;28;20081;-78
2022/05/07 00:54:45;;;;;;;1.35;0.90;;;7.80;99.90;;;;;;5037833;28;20042;-79
2022/05/07 00:57:12;;;;;;;2.10;1.25;;;;;;;;;;5042409;28;20021;-78
2022/05/07 00:59:38;;;;;;;2.40;1.30;;;;;;;;;;5041771;28;20021;-79
2022/05/07 01:02:04;;;;;;;1.98;0.90;;;;;;;;;;5039742;28;20066;-78
2022/05/07 01:04:30;;;;;;;4.05;1.60;;;;;;;;;;5040898;28;20752;-78
2022/05/07 01:06:56;;;;;;;1.65;1.05;;;;;;;;;;5043628;28;20033;-78
2022/05/07 01:09:22;;;;;;;2.85;1.55;;;;;;;;;;5039919;28;20074;-78
2022/05/07 01:11:49;;;;;;;3.40;1.15;;;;;;;;;;5041926;28;20082;-78
2022/05/07 01:14:15;;;;;;;2.33;0.93;;;;;;;;;;5043427;28;20034;-78
2022/05/07 01:16:41;;;;;;;1.90;0.80;;;;;;;;;;5039482;28;20025;-78
2022/05/07 01:19:07;;;;;;;6.18;1.02;;;;;;;;;;5047209;28;20120;-78
2022/05/07 01:21:33;;;;;;;2.15;1.02;;;;;;;;;;5046328;28;20151;-78
2022/05/07 01:23:59;;;;;;;1.35;0.90;;;;;;;;;;5043643;28;20498;-79
2022/05/07 01:26:26;;;;;;;1.90;0.90;;;;;;;;;;5044807;28;20076;-79
2022/05/07 01:28:58;;;;;;;1.83;0.77;;;;;;;;;;5043130;28;20078;-78
2022/05/07 01:31:25;;;;;;;1.07;0.77;;;;;;;;;;5038291;28;20110;-78
2022/05/07 01:33:52;;;;;;;2.60;1.00;;;;;;;;;;5045483;28;20283;-78
2022/05/07 01:36:19;;;;;;;1.02;0.85;;;;;;;;;;5046233;28;20491;-78
2022/05/07 01:38:45;;;;;;;1.13;0.68;;;;;;;;;;5045140;28;20035;-77
2022/05/07 01:41:11;;;;;;;1.60;1.02;;;;;;;;;;5044227;28;20032;-79
2022/05/07 01:43:37;;;;;;;1.88;0.82;;;;;;;;;;5040270;28;20040;-78
2022/05/07 01:46:03;;;;;;;2.33;0.88;;;;;;;;;;5040978;28;20032;-79
2022/05/07 01:48:30;;;;;;;3.53;1.75;;;;;;;;;;5036934;28;20037;-79
2022/05/07 01:50:56;;;;;;;1.73;0.70;;;;;;;;;;5044959;28;20035;-78
2022/05/07 01:53:22;;;;;;;1.50;1.02;;;;;;;;;;5044038;28;20033;-78
2022/05/07 01:55:48;;;;;;;4.85;1.33;;;;;;;;;;5039740;28;20472;-78
2022/05/07 01:58:14;;;;;;;2.83;1.20;;;;;;;;;;5041857;28;20029;-79
2022/05/07 02:00:40;;;;;;;2.60;1.27;;;;;;;;;;5039273;28;20032;-78
2022/05/07 02:03:06;;;;;;;3.55;1.50;;;;;;;;;;5046842;28;20126;-78
2022/05/07 02:05:32;;;;;;;2.75;1.10;;;;;;;;;;5051151;28;20028;-79
2022/05/07 02:07:58;;;;;;;2.78;1.40;;;;;;;;;;5036650;28;20033;-79
2022/05/07 02:10:25;;;;;;;3.17;1.38;;;;;;;;;;5039992;28;20028;-79
2022/05/07 02:12:52;;;;;;;4.55;1.55;;;;;;;;;;5036266;28;20033;-79
2022/05/07 02:15:18;;;;;;;2.40;1.52;;;;;;;;;;5044879;28;20067;-78
2022/05/07 02:17:44;;;;;;;4.30;1.90;;;;;;;;;;5043568;28;20020;-78
2022/05/07 02:20:10;;;;;;;2.92;1.30;;;;;;;;;;5044821;28;20412;-78
2022/05/07 02:22:36;;;;;;;1.70;1.38;;;;;;;;;;5035174;28;20033;-79
2022/05/07 02:25:03;;;;;;;2.35;1.35;;;;;;;;;;5044932;28;20396;-78
2022/05/07 02:27:29;;;;;;;2.40;0.98;;;;;;;;;;5043771;28;20025;-79
2022/05/07 02:29:55;;;;;;;7.40;1.52;;;;;;;;;;5042222;28;20036;-78
2022/05/07 02:32:21;;;;;;;2.38;1.27;;;;;;;;;;5042950;28;20556;-78
2022/05/07 02:34:47;;;;;;;2.30;1.13;;;;;;;;;;5039094;28;20100;-79
2022/05/07 02:37:13;;;;;;;3.00;1.27;;;;;;;;;;5041218;28;20099;-78
2022/05/07 02:39:39;;;;;;;2.83;1.23;;;;;;;;;;5044277;28;20040;-79
2022/05/07 02:44:50;;;;;;;2.67;1.10;;;;;;;;;;5038270;28;20459;-78
2022/05/07 02:47:16;;;;;;;4.10;2.47;;;;;;;;;;5040693;28;20501;-78
2022/05/07 02:49:42;;;;;;;4.40;2.25;;;;;;;;;;5045529;28;20052;-79
2022/05/07 02:52:08;;;;;;;2.20;1.30;;;;;;;;;;5041048;28;20136;-79
2022/05/07 02:54:34;;;;;;;2.95;1.30;;;;;;;;;;5042078;28;20221;-78
2022/05/07 02:57:00;;;;;;;2.63;1.95;;;;;;;;;;5046097;28;20024;-78
2022/05/07 02:59:26;;;;;;;3.13;1.38;;;;;;;;;;5045337;28;20033;-79
2022/05/07 03:01:52;;;;;;;1.88;1.35;;;;;;;;;;5047856;28;20111;-78
2022/05/07 03:04:19;;;;;;;2.05;1.23;;;;;;;;;;5048064;28;20045;-78
2022/05/07 03:06:45;;;;;;;2.00;1.10;;;;;;;;;;5045196;28;20021;-79
2022/05/07 03:09:11;;;;;;;2.33;1.25;;;;;;;;;;5048140;28;20056;-78
2022/05/07 03:11:37;;;;;;;2.60;1.00;;;;;;;;;;5045152;28;20075;-78
2022/05/07 03:14:03;;;;;;;2.78;1.02;;;;;;;;;;5045366;28;20032;-78
2022/05/07 03:16:30;;;;;;;1.33;0.70;;;;;;;;;;5048327;28;20029;-78
2022/05/07 03:18:56;;;;;;;1.92;1.08;;;;;;;;;;5045561;28;20037;-78
2022/05/07 03:21:22;;;;;;;4.70;1.40;;;;;;;;;;5043495;28;20029;-78
2022/05/07 03:23:48;;;;;;;1.30;0.90;;;;;;;;;;5045832;28;20082;-78
2022/05/07 03:26:14;;;;;;;3.67;1.42;;;;;;;;;;5045269;28;20033;-78
2022/05/07 03:28:41;;;;;;;2.42;1.73;;;;;;;;;;5047123;28;20036;-78
2022/05/07 03:31:07;;;;;;;2.08;1.38;;;;;;;;;;5040139;28;20074;-78
2022/05/07 03:33:33;;;;;;;3.35;1.48;;;;;;;;;;5043395;28;20033;-78
2022/05/07 03:35:59;;;;;;;5.45;1.88;;;;;;;;;;5049957;28;20025;-78
2022/05/07 03:38:25;;;;;;;3.50;1.35;;;;;;;;;;5048965;28;20140;-78
2022/05/07 03:40:51;;;;;;;2.65;1.80;;;;;;;;;;5042234;28;20029;-78
2022/05/07 03:43:17;;;;;;;8.05;1.55;;;;;;;;;;5040210;28;20710;-79
2022/05/07 03:45:43;;;;;;;2.30;1.35;;;;;;;;;;5039424;28;20029;-78
2022/05/07 03:48:09;;;;;;;1.95;1.25;;;;;;;;;;5043914;28;20055;-79
2022/05/07 03:50:36;;;;;;;3.42;1.08;;;;;;;;;;5045940;28;20591;-78
2022/05/07 03:55:47;;;;;;;1.58;1.02;;;;;;;;;;5044493;28;20099;-79
2022/05/07 03:58:17;;;;;;;2.38;1.45;;;;;;;;;;5041818;28;20041;-79
2022/05/07 04:00:43;;;;;;;1.35;1.00;;;;;;;;;;5044844;28;20065;-79
2022/05/07 04:03:13;;;;;;;2.95;1.25;;;6.20;99.90;;;;;;5041323;28;20101;-79
2022/05/07 04:05:39;;;;;;;1.27;0.82;;;;;;;;;;5047961;28;20497;-78
2022/05/07 04:08:05;;;;;;;6.32;1.45;;;;;;;;;;5040970;28;20025;-78
2022/05/07 04:10:31;;;;;;;1.38;0.85;;;;;;;;;;5047721;28;20484;-78
2022/05/07 04:12:57;;;;;;;1.98;1.00;;;;;;;;;;5039240;28;20082;-78
2022/05/07 04:15:24;;;;;;;2.15;1.42;;;;;;;;;;5041205;28;20478;-79
2022/05/07 04:17:50;;;;;;;0.73;0.55;;;;;;;;;;5041864;28;20040;-78
2022/05/07 04:20:17;;;;;;;1.52;0.93;;;;;;;;;;5042579;28;20082;-78
2022/05/07 04:22:43;;;;;;;2.47;0.95;;;;;;;;;;5041601;28;20059;-77
2022/05/07 04:25:10;;;;;;;2.47;1.25;;;;;;;;;;5038598;28;20124;-78
2022/05/07 04:27:36;;;;;;;3.55;1.30;;;;;;;;;;5042745;28;20396;-78
2022/05/07 04:30:02;;;;;;;4.15;1.10;;;;;;;;;;5037132;28;20043;-78
2022/05/07 04:32:28;;;;;;;2.47;1.05;;;;;;;;;;5039937;28;20021;-78
2022/05/07 04:34:55;;;;;;;3.55;1.50;;;;;;;;;;5045182;28;20052;-79
2022/05/07 04:37:24;;;;;;;2.13;1.40;;;;;;;;;;5043071;28;20485;-79
2022/05/07 04:39:50;;;;;;;2.55;1.60;;;;;;;;;;5045197;28;20469;-78
2022/05/07 04:42:16;;;;;;;1.83;1.02;;;;;;;;;;5043994;28;20060;-78
2022/05/07 04:44:42;;;;;;;4.35;1.48;;;;;;;;;;5045090;28;20040;-78
2022/05/07 04:47:08;;;;;;;2.45;1.25;;;;;;;;;;5046161;28;20032;-78
2022/05/07 04:49:35;;;;;;;2.95;1.33;;;7.00;99.90;;;;;;5040276;28;20025;-78
2022/05/07 04:52:01;;;;;;;1.73;1.15;;;;;;;;;;5049536;28;20354;-79
2022/05/07 04:54:27;;;;;;;2.63;1.65;;;;;;;;;;5041418;28;20052;-77
2022/05/07 04:56:54;;;;;;;2.97;1.30;;;;;;;;;;5038493;28;20051;-79
2022/05/07 04:59:21;;;;;;;1.88;1.10;;;;;;;;;;5046400;28;20048;-77
2022/05/07 05:01:47;;;;;;;1.90;1.33;;;;;;;;;;5037600;28;20533;-77
2022/05/07 05:04:13;;;;;;;2.80;1.13;;;;;;;;;;5040070;28;20040;-81
2022/05/07 05:06:40;;;;;;;1.10;0.65;;;;;;;;;;5040205;28;20024;-77
2022/05/07 05:09:06;;;;;;;1.95;1.10;;;;;;;;;;5038698;28;20033;-79
2022/05/07 05:11:33;;;;;;;3.20;1.35;;;;;;;;;;5047694;28;20502;-79
2022/05/07 05:13:59;;;;;;;1.90;0.85;;;;;;;;;;5043017;28;20025;-78
2022/05/07 05:16:25;;;;;;;1.83;1.08;;;;;;;;;;5042345;28;20032;-78
2022/05/07 05:18:51;;;;;;;2.08;1.13;;;;;;;;;;5040357;28;20093;-79
2022/05/07 05:21:18;;;;;;;1.25;0.90;;;;;;;;;;5041097;28;20021;-79
2022/05/07 05:23:46;;;;;;;5.97;1.45;;;;;;;;;;5037813;28;20400;-78
2022/05/07 05:26:13;;;;;;;2.72;1.20;;;7.80;99.90;;;;;;5050581;28;20094;-79
2022/05/07 05:28:39;;;;;;;4.10;1.52;;;7.20;99.90;;;;;;5044714;28;20036;-79
2022/05/07 05:31:05;;;;;;;2.90;1.50;;;;;;;;;;5042283;28;20771;-79
2022/05/07 05:33:31;;;;;;;1.75;1.33;;;;;;;;;;5048213;28;20060;-79
2022/05/07 05:35:57;;;;;;;2.25;1.42;;;;;;;;;;5047605;28;20051;-78
2022/05/07 05:38:24;;;;;;;3.17;1.73;;;;;;;;;;5044072;28;20033;-79
2022/05/07 05:40:50;;;;;;;2.67;1.48;;;;;;;;;;5044630;28;20026;-79
2022/05/07 05:43:17;;;;;;;5.13;1.40;;;;;;;;;;5042918;28;20074;-79
2022/05/07 05:45:43;;;;;;;2.38;1.10;;;;;;;;;;5038705;28;20037;-79
2022/05/07 05:48:09;;;;;;;3.75;1.55;;;;;;;;;;5046556;28;20132;-79
2022/05/07 05:50:35;;;;;;;5.47;1.42;;;;;;;;;;5043757;28;20127;-79
2022/05/07 05:53:01;;;;;;;2.28;1.38;;;;;;;;;;5040068;28;20179;-79
2022/05/07 05:55:28;;;;;;;3.92;1.88;;;;;;;;;;5036430;28;20439;-79
2022/05/07 05:57:56;;;;;;;3.47;1.50;;;;;;;;;;5042127;28;20025;-79
2022/05/07 06:00:21;;;;;;;2.47;1.55;;;;;;;;;;5045931;28;20082;-80
2022/05/07 06:02:47;;;;;;;3.80;1.92;;;;;;;;;;5045250;28;20028;-79
2022/05/07 06:05:17;;;;;;;2.38;1.67;;;;;;;;;;5044463;28;20031;-80
2022/05/07 06:07:43;;;;;;;5.32;1.95;;;;;;;;;;5041178;28;20020;-79
2022/05/07 06:10:09;;;;;;;7.72;2.10;;;;;;;;;;5046592;28;20039;-79
2022/05/07 06:12:35;;;;;;;3.47;1.65;;;;;;;;;;5038117;28;20030;-77
2022/05/07 06:15:01;;;;;;;3.28;1.92;;;;;;;;;;5044121;28;20037;-79
2022/05/07 06:17:27;;;;;;;2.78;1.65;;;;;;;;;;5027425;28;20508;-78
2022/05/07 06:19:53;;;;;;;2.72;1.63;;;;;;;;;;5036932;28;20028;-77
2022/05/07 06:22:19;;;;;;;2.67;1.70;;;;;;;;;;5034214;28;20463;-77
2022/05/07 06:27:33;;;;;;;6.07;2.35;;;;;;;;;;5032343;28;20091;-80
2022/05/07 06:29:59;;;;;;;3.15;1.35;;;;;;;;;;5033076;28;20071;-81
2022/05/07 06:32:35;;;;;;;2.60;1.17;;;;;;;;;;5041947;28;20036;-80
2022/05/07 06:35:03;;;;;;;1.30;1.00;;;;;;;;;;5037079;28;20029;-79
2022/05/07 06:37:29;;;;;;;1.45;0.60;;;;;;;;;;5039507;28;20025;-81
2022/05/07 06:39:55;;;;;;;1.45;0.80;;;;;;;;;;5029121;28;20326;-80
2022/05/07 06:42:22;;;;;;;1.35;0.68;;;;;;;;;;5040732;28;20112;-79
2022/05/07 06:44:48;;;;;;;1.48;0.73;;;;;;;;;;5032839;28;20063;-79
2022/05/07 06:47:14;;;;;;;3.05;0.70;;;;;;;;;;5033463;28;20510;-79
2022/05/07 06:49:42;;;;;;;1.67;0.60;;;;;;;;;;5042715;28;20025;-81
2022/05/07 06:52:08;;;;;;;1.02;0.63;;;;;;;;;;5040001;28;20104;-80
2022/05/07 06:54:34;;;;;;;2.38;0.60;;;;;;;;;;5036598;28;20432;-80
2022/05/07 06:57:01;;;;;;;1.10;0.70;;;;;;;;;;5030863;28;20037;-80
2022/05/07 06:59:27;;;;;;;1.73;0.70;;;;;;;;;;5039287;28;20032;-79
2022/05/07 07:01:54;;;;;;;0.88;0.60;;;;;;;;;;5027221;28;20245;-81
2022/05/07 07:04:20;;;;;;;1.02;0.60;;;;;;;;;;5026881;28;20053;-79
2022/05/07 07:06:46;;;;;;;2.28;0.80;;;;;;;;;;5036793;28;20233;-81
2022/05/07 07:09:12;;;;;;;2.70;0.80;;;;;;;;;;5032533;28;20052;-78
2022/05/07 07:11:38;;;;;;;3.35;0.98;;;;;;;;;;5028976;28;20052;-80
2022/05/07 07:14:04;;;;;;;1.20;0.70;;;;;;;;;;5032506;28;20033;-79
2022/05/07 07:16:30;;;;;;;;;;;;;;;;;;5035784;28;20017;-78
2022/05/07 07:18:56;;;;;;;1.70;1.00;;;;;;;;;;5037195;28;19917;-79
2022/05/07 07:21:22;;;;;;;2.75;1.00;;;;;;;;;;5026666;28;20037;-79
2022/05/07 07:23:48;;;;;;;2.90;1.30;;;16.70;99.90;;;;;;5032415;28;20492;-79
2022/05/07 07:26:14;;;;;;;2.40;1.20;;;;;;;;;;5038608;28;20123;-79
2022/05/07 07:28:40;;;;;;;2.65;1.38;;;;;;;;;;5035886;28;20036;-78
2022/05/07 07:31:06;;;;;;;2.47;1.10;;;;;;;;;;5035147;28;20127;-78
2022/05/07 07:33:32;;;;;;;2.28;1.40;;;;;;;;;;5046379;28;20056;-79
2022/05/07 07:35:58;;;;;;;2.78;1.52;;;;;;;;;;5033992;28;20041;-78
2022/05/07 07:38:26;;;;;;;3.08;0.80;;;;;;;;;;5041967;28;20653;-78
2022/05/07 07:40:52;;;;;;;2.20;1.17;;;;;;;;;;5032106;28;20037;-78
2022/05/07 07:43:18;;;;;;;2.22;1.30;;;;;;;;;;5040724;28;20447;-78
2022/05/07 07:48:30;;;;;;;2.58;1.40;;;;;;;;;;5037772;28;20269;-79
2022/05/07 07:50:56;;;;;;;3.60;1.65;;;;;;;;;;5043903;28;20043;-79
2022/05/07 07:53:24;;;;;;;3.10;1.50;;;;;;;;;;5043127;28;20163;-79
2022/05/07 07:55:49;;;;;;;3.83;1.08;;;;;;;;;;5041963;28;20053;-78
2022/05/07 07:58:16;;;;;;;3.05;1.00;;;;;;;;;;5032403;28;21415;-80
2022/05/07 08:00:44;;;;;;;5.38;1.48;;;;;;;;;;5042985;28;20049;-79
2022/05/07 08:03:17;;;;;;;3.30;1.48;;;;;;;;;;5042264;28;20056;-78
2022/05/07 08:05:43;;;;;;;1.92;1.05;;;;;;;;;;5049054;28;20059;-79
2022/05/07 08:13:40;;;;;;;4.28;1.42;;;;;;;;;;5048476;28;20218;-78
2022/05/07 08:16:09;;;;;;;4.93;1.08;;;;;;;;;;5047030;28;20032;-78
2022/05/07 08:18:35;;;;;;;2.10;1.58;;;;;;;;;;5040466;28;20036;-78
2022/05/07 08:21:02;;;;;;;1.85;0.75;;;;;;;;;;5048417;28;20028;-78
2022/05/07 08:23:28;;;;;;;0.98;0.75;;;;;;;;;;5048406;28;20068;-78
2022/05/07 08:25:54;;;;;;;2.17;1.17;;;;;;;;;;5050400;28;20029;-79
2022/05/07 08:28:21;;;;;;;0.90;0.60;;;;;;;;;;5049589;28;20372;-79
2022/05/07 08:30:49;;;;;;;2.70;0.65;;;;;;;;;;5050243;28;20057;-78
2022/05/07 08:33:17;;;;;;;3.80;1.15;;;;;;;;;;5043686;28;20035;-79
2022/05/07 08:35:43;;;;;;;;;;;;;;;;;;5044875;28;20033;-79
2022/05/07 08:38:09;;;;;;;1.15;0.63;;;;;;;;;;5051529;28;19909;-78
2022/05/07 08:40:35;;;;;;;1.48;0.65;;;;;;;;;;5051053;28;20584;-78
2022/05/07 08:43:03;;;;;;;2.17;0.50;;;27.50;53.70;;;;;;5048455;28;20043;-80
2022/05/07 08:45:29;;;;;;;1.10;0.68;;;;;;;;;;5054463;28;20092;-79
2022/05/07 08:47:55;;;;;;;1.20;0.57;;;;;;;;;;5047333;28;20372;-80
2022/05/07 08:50:22;;;;;;;1.00;0.60;;;;;;;;;;5052027;28;20028;-80
2022/05/07 08:52:52;;;;;;;1.10;0.70;;;;;;;;;;5049308;28;20432;-82
2022/05/07 08:55:19;;;;;;;1.67;0.40;;;29.70;64.20;;;;;;5049471;28;20029;-80
2022/05/07 08:57:46;;;;;;;0.68;0.45;;;;;;;;;;5050807;28;20025;-80
2022/05/07 09:00:13;;;;;;;1.05;0.70;;;;;;;;;;5051425;28;20029;-81
2022/05/07 09:02:41;;;;;;;1.08;0.65;;;;;;;;;;5043630;28;20036;-80
2022/05/07 09:05:07;;;;;;;1.10;0.63;;;30.90;63.10;;;;;;5047308;28;20063;-79
2022/05/07 09:07:33;;;;;;;2.10;0.80;;;;;;;;;;5048103;28;20021;-79
2022/05/07 09:09:59;;;;;;;1.63;0.88;;;;;;;;;;5050737;28;20025;-79
2022/05/07 09:12:28;;;;;;;2.65;0.73;;;31.20;41.70;;;;;;5052547;28;20616;-79
2022/05/07 09:14:55;;;;;;;5.15;1.25;;;29.90;61.70;;;;;;5050253;28;20060;-80
2022/05/07 09:17:21;;;;;;;1.33;0.88;;;;;;;;;;5046607;28;20530;-77
2022/05/07 09:19:47;;;;;;;2.67;1.08;;;27.60;63.40;;;;;;5045579;28;20028;-80
2022/05/07 09:22:13;;;;;;;2.40;0.68;;;;;;;;;;5055063;28;20540;-79
2022/05/07 09:24:39;;;;;;;4.25;1.20;;;25.70;49.30;;;;;;5052551;28;20547;-79
2022/05/07 09:27:06;;;;;;;2.45;1.00;;;;;;;;;;5047420;28;20749;-81
2022/05/07 09:29:32;;;;;;;3.08;0.82;;;;;;;;;;5044560;28;20085;-80
2022/05/07 09:32:08;;;;;;;1.40;0.90;;;;;;;;;;5040990;28;20029;-77
2022/05/07 09:37:33;;;;;;;1.33;0.68;;;;;;;;;;5048338;28;20039;-80
2022/05/07 09:40:02;;;;;;;5.43;0.93;;;;;;;;;;5048557;28;20508;-80
2022/05/07 09:42:28;;;;;;;2.00;0.80;;;;;;;;;;5052901;28;20032;-79
2022/05/07 09:44:54;;;;;;;3.17;0.93;;;;;;;;;;5050186;28;20059;-79
2022/05/07 09:47:20;;;;;;;4.95;1.23;;;;;;;;;;5050472;28;20441;-79
2022/05/07 09:52:32;;;;;;;5.95;1.50;;;;;;;;;;5051253;28;20524;-80
2022/05/07 09:57:43;;;;;;;2.58;1.00;;;;;;;;;;5046574;28;20063;-79
2022/05/07 10:00:13;;;;;;;1.75;0.93;;;;;;;;;;5052592;28;20037;-79
2022/05/07 10:02:39;;;;;;;4.10;1.15;;;;;;;;;;5045778;28;20060;-80
2022/05/07 10:05:08;;;;;;;1.55;0.80;;;;;;;;;;5051122;28;20072;-80
2022/05/07 10:07:53;;;;;;;2.25;0.98;;;;;;;;;;5052158;28;20112;-79
2022/05/07 10:10:28;;;;;;;3.10;1.83;;;21.30;62.70;;;;;;5045761;28;20030;-80
2022/05/07 10:12:56;;;;;;;2.45;1.58;;;21.80;65.20;;;;;;5043517;28;20424;-80
2022/05/07 10:15:24;;;;;;;4.05;2.20;;;21.50;60.00;;;;;;5052968;28;20053;-80
2022/05/07 10:18:03;;;;;;;1.65;1.33;;;;;;;;;;5051709;28;20025;-79
2022/05/07 10:20:43;;;;;;;2.25;0.93;;;;;;;;;;5053088;28;20033;-80
2022/05/07 10:23:10;;;;;;;5.80;2.00;;;;;;;;;;5049608;28;20099;-79
2022/05/07 10:25:36;;;;;;;3.05;1.55;;;;;;;;;;5053157;28;20029;-80
2022/05/07 10:28:09;;;;;;;9.40;3.90;;;;;;;;;;5051972;28;20029;-79
2022/05/07 10:30:51;;;;;;;11.05;4.78;;;;;;;;;;5058656;28;20215;-79
2022/05/07 10:33:18;;;;;;;4.70;2.03;;;;;;;;;;5050785;28;20723;-79
2022/05/07 10:35:48;;;;;;;1.92;1.27;;;21.30;62.50;;;;;;5046878;28;20076;-79
2022/05/07 10:38:17;;;;;;;4.05;1.50;;;21.30;67.00;;;;;;5049704;28;20048;-78
2022/05/07 10:41:11;;;;;;;2.72;1.35;;;21.10;64.70;;;;;;5051864;28;20048;-80
2022/05/07 10:43:38;;;;;;;2.97;1.20;;;;;;;;;;5026902;28;20049;-79
2022/05/07 10:46:08;;;;;;;2.45;1.42;;;;;;;;;;5049160;28;20041;-79
2022/05/07 10:48:45;;;;;;;4.28;1.50;;;;;;;;;;5049282;28;20029;-80
2022/05/07 10:51:27;;;;;;;2.08;1.17;;;;;;;;;;5051182;28;20108;-80
2022/05/07 10:53:56;;;;;;;5.23;2.03;;;;;;;;;;5046940;28;20025;-79
2022/05/07 10:56:24;;;;;;;4.28;1.63;;;;;;;;;;5049704;28;20770;-80
2022/05/07 10:58:51;;;;;;;3.95;1.75;;;22.40;65.40;;;;;;5047665;28;20506;-79
2022/05/07 11:01:18;;;;;;;3.30;1.65;;;22.00;60.00;;;;;;5048688;28;20029;-79
2022/05/07 11:03:45;;;;;;;3.92;1.40;;;;;;;;;;5049921;28;20041;-80
2022/05/07 11:06:11;;;;;;;5.60;2.15;;;;;;;;;;5049105;28;20029;-79
2022/05/07 11:08:50;;;;;;;3.38;1.85;;;;;;;;;;5053589;28;20424;-80
2022/05/07 11:11:17;;;;;;;4.95;1.80;;;21.80;61.60;;;;;;5051900;28;20033;-80
2022/05/07 11:13:50;;;;;;;4.13;2.15;;;;;;;;;;5059275;28;20029;-81
2022/05/07 11:16:17;;;;;;;2.05;1.38;;;22.00;61.10;;;;;;5054848;28;20114;-80
2022/05/07 11:18:53;;;;;;;3.30;1.20;;;;;;;;;;5055914;28;20033;-79
2022/05/07 11:21:19;;;;;;;2.78;1.52;;;;;;;;;;5051105;28;20029;-79
2022/05/07 11:23:52;;;;;;;2.67;1.45;;;;;;;;;;5058552;28;20068;-80
2022/05/07 11:26:20;;;;;;;1.95;1.23;;;;;;;;;;5051436;28;20033;-80
2022/05/07 11:28:46;;;;;;;3.63;1.73;;;;;;;;;;5049807;28;20032;-79
2022/05/07 11:31:15;;;;;;;2.58;1.83;;;;;;;;;;5047795;28;20104;-79
2022/05/07 11:33:41;;;;;;;4.25;1.80;;;;;;;;;;5054340;28;20057;-80
2022/05/07 11:36:08;;;;;;;4.88;1.83;;;;;;;;;;5049755;28;20063;-79
2022/05/07 11:38:34;;;;;;;6.18;2.05;;;;;;;;;;5051078;28;20033;-79
2022/05/07 11:41:14;;;;;;;3.40;1.70;;;;;;;;;;5054550;28;20029;-80
2022/05/07 11:46:24;;;;;;;2.78;1.38;;;;;;;;;;5049481;28;20106;-80
2022/05/07 11:48:51;;;;;;;2.63;1.30;;;;;;;;;;5052583;28;20025;-80
2022/05/07 11:51:24;;;;;;;6.20;1.85;;;;;;;;;;5055323;28;20025;-79
2022/05/07 11:53:50;;;;;;;3.28;1.50;;;22.00;71.70;;;;;;5055721;28;20029;-79
2022/05/07 11:56:16;;;;;;;2.17;1.13;;;;;;;;;;5048155;28;20041;-79
2022/05/07 11:58:46;;;;;;;2.25;1.35;;;;;;;;;;5047989;28;20036;-79
2022/05/07 12:01:28;;;;;;;2.63;1.55;;;;;;;;;;5052015;28;20044;-78
2022/05/07 12:03:54;;;;;;;2.88;1.63;;;;;;;;;;5047293;28;20611;-80
2022/05/07 12:06:24;;;;;;;5.70;1.27;;;;;;;;;;5058279;28;20158;-79
2022/05/07 12:08:50;;;;;;;3.95;1.25;;;;;;;;;;5046371;28;20035;-79
2022/05/07 12:11:16;;;;;;;3.80;1.58;;;;;;;;;;5045082;28;20066;-80
2022/05/07 12:13:45;;;;;;;2.30;1.65;;;;;;;;;;5053562;28;20527;-80
2022/05/07 12:18:55;;;;;;;2.33;1.23;;;;;;;;;;5046174;28;20047;-80
2022/05/07 12:29:48;;;;;;;1.73;0.95;;;;;;;;;;5045353;28;20030;-80
2022/05/07 12:29:49;;;;;;;1.30;0.95;;;;;;;;;;5046107;28;20036;-79
2022/05/07 12:32:16;;;;;;;1.42;0.82;;;;;;;;;;5046545;28;20049;-79
2022/05/07 12:34:42;;;;;;;2.70;1.65;;;;;;;;;;5053370;28;20025;-80
2022/05/07 12:37:08;;;;;;;1.83;1.00;;;;;;;;;;5052333;28;20039;-79
2022/05/07 12:39:34;;;;;;;3.13;1.27;;;;;;;;;;5046065;28;20160;-80
2022/05/07 12:42:07;;;;;;;2.60;1.17;;;;;;;;;;5045451;28;20028;-79
2022/05/07 12:44:33;;;;;;;;;;;;;;;;;;5052579;28;20106;-79
2022/05/07 12:46:59;;;;;;;2.78;0.98;;;21.80;86.30;;;;;;5046958;28;20295;-80
2022/05/07 12:49:25;;;;;;;3.33;1.30;;;;;;;;;;5044668;28;21639;-79
2022/05/07 12:51:51;;;;;;;5.03;1.50;;;;;;;;;;5051805;28;20117;-80
2022/05/07 12:54:17;;;;;;;1.08;0.70;;;22.60;78.70;;;;;;5054750;28;20017;-80
2022/05/07 12:56:44;;;;;;;3.10;1.35;;;;;;;;;;5056488;28;20111;-80
2022/05/07 12:59:10;;;;;;;1.60;1.10;;;;;;;;;;5054515;28;20236;-80
2022/05/07 13:01:38;;;;;;;4.47;1.10;;;;;;;;;;5044619;28;20036;-79
2022/05/07 13:04:04;;;;;;;;;;;;;;;;;;5051125;28;20064;-80
2022/05/07 13:06:29;;;;;;;;;;;;;;;;;;5052908;28;19909;-79
2022/05/07 13:08:58;;;;;;;2.15;1.13;;;;;;;;;;5054082;28;19920;-79
2022/05/07 13:11:27;;;;;;;1.55;1.00;;;;;;;;;;5052901;28;20467;-80
2022/05/07 13:13:56;;;;;;;3.22;1.13;;;;;;;;;;5053146;28;20026;-80
2022/05/07 13:16:22;;;;;;;2.35;0.70;;;22.10;73.20;;;;;;5051301;28;20021;-79
2022/05/07 13:18:48;;;;;;;3.47;1.50;;;22.20;62.70;;;;;;5051989;28;20028;-80
2022/05/07 13:21:14;;;;;;;1.10;0.80;;;;;;;;;;5056941;28;20028;-80
2022/05/07 13:23:41;;;;;;;2.05;0.85;;;;;;;;;;5051858;28;20033;-79
2022/05/07 13:26:07;;;;;;;1.70;1.00;;;;;;;;;;5049604;28;20057;-80
2022/05/07 13:28:34;;;;;;;0.82;0.60;;;;;;;;;;5051959;28;20036;-80
2022/05/07 13:31:00;;;;;;;4.15;1.13;;;;;;;;;;5038403;28;20034;-80
2022/05/07 13:33:26;;;;;;;0.90;0.77;;;;;;;;;;5045224;28;20037;-80
2022/05/07 13:35:52;;;;;;;2.17;0.80;;;;;;;;;;5046902;28;20347;-79
2022/05/07 13:38:19;;;;;;;0.93;0.60;;;;;;;;;;5029974;28;20440;-81
2022/05/07 13:40:45;;;;;;;1.20;0.70;;;;;;;;;;5035534;28;20059;-79
2022/05/07 13:43:11;;;;;;;3.20;0.70;;;;;;;;;;5047738;28;20029;-78
2022/05/07 13:45:38;;;;;;;1.15;0.68;;;;;;;;;;5035388;28;20025;-79
2022/05/07 13:48:10;;;;;;;2.88;0.65;;;;;;;;;;5040864;28;20041;-79
2022/05/07 13:50:39;;;;;;;1.48;0.80;;;;;;;;;;5042410;28;20508;-78
2022/05/07 13:53:07;;;;;;;3.55;0.65;;;;;;;;;;5039344;28;20037;-77
2022/05/07 13:55:33;;;;;;;2.45;0.68;;;;;;;;;;5031080;28;20021;-78
2022/05/07 13:57:58;;;;;;;4.28;0.82;;;22.00;80.80;;;;;;5033105;28;20035;-77
2022/05/07 14:00:24;;;;;;;1.13;0.60;;;;;;;;;;5041318;28;20392;-78
2022/05/07 14:02:50;;;;;;;0.50;0.35;;;;;;;;;;5036543;28;20021;-78
2022/05/07 14:05:17;;;;;;;0.95;0.50;;;;;;;;;;5037578;28;20069;-77
2022/05/07 14:07:43;;;;;;;3.08;0.65;;;;;;;;;;5031715;28;20033;-78
2022/05/07 14:10:10;;;;;;;1.45;0.65;;;;;;;;;;5026572;28;20052;-78
2022/05/07 14:12:36;;;;;;;1.15;0.50;;;;;;;;;;5037794;28;20137;-82
2022/05/07 14:15:02;;;;;;;3.65;0.55;;;;;;;;;;5038872;28;20016;-80
2022/05/07 14:17:29;;;;;;;3.92;0.80;;;;;;;;;;5034126;28;20052;-79
2022/05/07 14:19:56;;;;;;;3.40;0.70;;;;;;;;;;5030300;28;20033;-80
2022/05/07 14:22:22;;;;;;;0.52;0.30;;;;;;;;;;5037989;28;20061;-79
2022/05/07 14:24:50;;;;;;;1.10;0.70;;;;;;;;;;5030578;28;20041;-79
2022/05/07 14:27:16;;;;;;;1.92;0.75;;;;;;;;;;5029133;28;20025;-80
2022/05/07 14:29:42;;;;;;;0.95;0.68;;;;;;;;;;5028398;28;20134;-80
2022/05/07 14:32:10;;;;;;;0.90;0.45;;;;;;;;;;5042393;28;20516;-80
2022/05/07 14:34:36;;;;;;;1.63;0.63;;;;;;;;;;5054916;28;20093;-80
2022/05/07 14:37:03;;;;;;;0.80;0.50;;;;;;;;;;5053912;28;20036;-80
2022/05/07 14:39:29;;;;;;;3.05;0.85;;;;;;;;;;5035611;28;20040;-80
2022/05/07 14:41:55;;;;;;;1.77;0.43;;;;;;;;;;5052476;28;20033;-80
2022/05/07 14:44:21;;;;;;;2.05;0.57;;;;;;;;;;5056338;28;20615;-80
2022/05/07 14:46:47;;;;;;;0.80;0.57;;;;;;;;;;5049359;28;20105;-81
2022/05/07 14:49:13;;;;;;;0.98;0.52;;;;;;;;;;5053702;28;20021;-80
2022/05/07 14:51:39;;;;;;;1.38;0.73;;;;;;;;;;5055972;28;20009;-81
2022/05/07 14:54:06;;;;;;;2.70;0.60;;;;;;;;;;5057123;28;20059;-80
2022/05/07 14:56:32;;;;;;;1.52;0.60;;;;;;;;;;5056328;28;20028;-81
2022/05/07 14:58:58;;;;;;;4.28;0.55;;;;;;;;;;5061996;28;20116;-81
2022/05/07 15:01:24;;;;;;;1.77;0.60;;;;;;;;;;5058898;28;20113;-80
2022/05/07 15:03:51;;;;;;;0.80;0.50;;;;;;;;;;5056387;28;20053;-81
2022/05/07 15:06:18;;;;;;;2.80;0.90;;;;;;;;;;5058621;28;20206;-80
2022/05/07 15:11:40;;;;;;;2.30;0.63;;;;;;;;;;5063899;28;20035;-81